Aeroporto :
LOGIN :

Iscrizione | Disclaimer

   EN    FR    IT 

 










Sommario :    VFR   VFR Marginale   IFR   IFR Intensivo   IFR Molto Intensivo
Visibilità : 
Base nubi : 
>= 8 km
>= 3000ft
5 / 8 km
1000 / 3000 ft
1500m / 5 km
500 / 1000 ft
800 / 1500m
200 / 500 ft
< 800m
< 200 ft
Simboli :   Temporali  Nebbia  Neve Forte  Precipitazioni Forti  Vento > 20 kt
SIGMETs :   Varie  Temporali  Ghiacco  Turbolenza  Onda orograficha  Ceneri Vulcaniche







- Altitudine del aeroporto : 3 ft
- Codice IATA : DHR


EHKD - Den Helder De Kooy

ULTIMO METAR :
  • 220255Z AUTO 27015KT 240V330 9999 SCT033 SCT041 BKN270 14/07 Q1015 BLU

METARs OBSOLETI :
  • 220225Z AUTO 28019KT 230V310 9999 FEW032 SCT045 14/08 Q1014 BLU
  • 220155Z AUTO 28016KT 240V310 9999 FEW023CB OVC048 14/08 Q1014 BLU
  • 220125Z AUTO 29014KT 260V320 9999 FEW015CB BKN029 BKN034 OVC038 14/10 Q1014 REDZ BLU
  • 220055Z AUTO 28017KT 250V320 9999 DZ FEW015CB BKN050 BKN057 13/09 Q1013 BLU
  • 220025Z AUTO 27020KT 250V310 9999 FEW022CB SCT029 BKN048 14/08 Q1013 BLU
  • 212355Z AUTO 28018KT 250V320 9999 FEW019CB SCT037 BKN052 14/09 Q1013 BLU

TAF TAF EHKD
Valido dal 22 a 01 ore il 22 a 13 ore UTC


220025Z 2201/2213 27018G30KT 9999 SCT030
TEMPO 2201/2210 4500 SHRA SCT025CB BKN030
Nessun NOTAM noto per questo aeroporto.



MetMap, La meteo Aeronautica in un colpo d'occhio ! - Copyright ORBIFLY Dicembre 2007 - Disclaimer

ORBIFLY MET'MAP TEAM :

Programmazione e sviluppo : Alexandra Zaïnal
Concezione e sviluppo : Baudouin d'Aumeries
Co-Programmazione e sviluppo : Marc-Olivier Méhu
Supporto tecnico e logistico : Manuel Goepfert
Aiuto per la traduzione : Arnaldo La Scala

Contatto : metmap@orbifly.com




FONTI E CREDITI :

   NOAA